createdAt,value
2022-10-08T00:01:36.132Z,3.70
2022-10-08T00:04:08.689Z,3.22
2022-10-08T00:06:40.680Z,3.05
2022-10-08T00:09:12.716Z,4.28
2022-10-08T00:11:44.671Z,3.58
2022-10-08T00:14:16.642Z,3.40
2022-10-08T00:16:48.794Z,3.28
2022-10-08T00:19:20.960Z,3.80
2022-10-08T00:21:57.082Z,3.38
2022-10-08T00:24:29.384Z,3.50
2022-10-08T00:27:01.296Z,3.78
2022-10-08T00:29:33.543Z,3.38
2022-10-08T00:32:07.168Z,3.53
2022-10-08T00:34:40.068Z,3.67
2022-10-08T00:37:11.978Z,4.43
2022-10-08T00:39:44.553Z,3.38
2022-10-08T00:42:16.516Z,3.60
2022-10-08T00:44:57.861Z,3.58
2022-10-08T00:47:46.266Z,4.28
2022-10-08T00:50:30.036Z,3.58
2022-10-08T00:53:09.905Z,3.20
2022-10-08T00:55:43.980Z,4.07
2022-10-08T00:58:21.279Z,4.13
2022-10-08T01:00:54.106Z,3.50
2022-10-08T01:03:26.119Z,3.22
2022-10-08T01:06:18.994Z,3.28
2022-10-08T01:09:19.149Z,4.38
2022-10-08T01:12:09.719Z,3.85
2022-10-08T01:15:08.913Z,3.72
2022-10-08T01:18:01.835Z,3.50
2022-10-08T01:20:54.022Z,3.75
2022-10-08T01:23:42.529Z,3.45
2022-10-08T01:26:38.492Z,3.22
2022-10-08T01:29:37.018Z,3.05
2022-10-08T01:32:17.736Z,3.17
2022-10-08T01:34:53.895Z,3.13
2022-10-08T01:37:33.748Z,3.22
2022-10-08T01:40:13.326Z,3.53
2022-10-08T01:42:47.191Z,3.80
2022-10-08T01:45:26.645Z,3.17
2022-10-08T01:48:01.944Z,2.72
2022-10-08T01:50:41.845Z,2.90
2022-10-08T01:53:16.407Z,3.28
2022-10-08T01:55:54.636Z,2.70
2022-10-08T01:58:43.779Z,3.08
2022-10-08T02:01:40.477Z,3.00
2022-10-08T02:04:30.786Z,3.33
2022-10-08T02:07:16.719Z,3.10
2022-10-08T02:09:54.266Z,3.97
2022-10-08T02:12:26.286Z,3.63
2022-10-08T02:14:59.818Z,3.15
2022-10-08T02:18:10.950Z,3.92
2022-10-08T02:21:03.103Z,3.55
2022-10-08T02:23:48.606Z,4.80
2022-10-08T02:26:33.529Z,4.10
2022-10-08T02:29:16.999Z,5.07
2022-10-08T02:31:55.096Z,3.25
2022-10-08T02:34:36.093Z,2.75
2022-10-08T02:37:23.883Z,2.38
2022-10-08T02:40:01.865Z,3.65
2022-10-08T02:42:36.820Z,3.55
2022-10-08T02:45:28.598Z,3.67
2022-10-08T02:48:14.950Z,2.53
2022-10-08T02:50:51.968Z,2.40
2022-10-08T02:53:25.478Z,3.15
2022-10-08T02:56:28.249Z,3.08
2022-10-08T02:59:00.409Z,3.60
2022-10-08T03:01:48.425Z,3.80
2022-10-08T03:04:43.373Z,2.72
2022-10-08T03:07:15.768Z,3.13
2022-10-08T03:09:51.904Z,2.80
2022-10-08T03:12:25.894Z,3.45
2022-10-08T03:14:58.060Z,3.78
2022-10-08T03:17:37.198Z,3.33
2022-10-08T03:20:10.801Z,3.00
2022-10-08T03:22:43.168Z,3.38
2022-10-08T03:25:15.154Z,3.40
2022-10-08T03:27:47.065Z,3.72
2022-10-08T03:30:19.229Z,2.90
2022-10-08T03:32:51.188Z,3.03
2022-10-08T03:35:23.119Z,3.75
2022-10-08T03:37:55.218Z,4.88
2022-10-08T03:40:27.167Z,3.95
2022-10-08T03:42:59.112Z,3.60
2022-10-08T03:45:31.084Z,3.22
2022-10-08T03:48:03.077Z,3.53
2022-10-08T03:50:35.525Z,3.90
2022-10-08T03:53:07.433Z,3.28
2022-10-08T03:55:39.344Z,3.72
2022-10-08T03:58:11.330Z,4.03
2022-10-08T04:00:43.440Z,3.50
2022-10-08T04:03:15.357Z,2.92
2022-10-08T04:05:50.651Z,3.17
2022-10-08T04:08:23.245Z,3.20
2022-10-08T04:10:55.261Z,4.38
2022-10-08T04:13:27.187Z,3.35
2022-10-08T04:16:05.071Z,2.83
2022-10-08T04:18:37.121Z,3.45
2022-10-08T04:21:13.629Z,3.72
2022-10-08T04:23:46.927Z,3.15
2022-10-08T04:26:19.056Z,3.03
2022-10-08T04:28:51.068Z,3.92
2022-10-08T04:31:24.032Z,3.72
2022-10-08T04:33:56.876Z,3.20
2022-10-08T04:36:28.789Z,3.20
2022-10-08T04:39:00.745Z,3.08
2022-10-08T04:41:32.630Z,3.42
2022-10-08T04:44:04.541Z,3.13
2022-10-08T04:46:36.636Z,3.13
2022-10-08T04:49:09.962Z,3.13
2022-10-08T04:51:41.885Z,2.83
2022-10-08T04:54:13.863Z,3.88
2022-10-08T04:56:45.761Z,2.83
2022-10-08T04:59:17.698Z,3.05
2022-10-08T05:01:49.824Z,3.00
2022-10-08T05:04:21.754Z,3.50
2022-10-08T05:06:53.714Z,3.42
2022-10-08T05:09:25.714Z,3.42
2022-10-08T05:11:57.638Z,3.25
2022-10-08T05:14:29.553Z,3.20
2022-10-08T05:17:01.494Z,3.83
2022-10-08T05:19:33.916Z,3.35
2022-10-08T05:22:05.824Z,3.22
2022-10-08T05:24:37.825Z,4.22
2022-10-08T05:27:09.775Z,4.32
2022-10-08T05:29:41.932Z,3.78
2022-10-08T05:32:13.819Z,4.40
2022-10-08T05:34:45.794Z,6.53
2022-10-08T05:37:17.708Z,4.32
2022-10-08T05:39:49.897Z,3.88
2022-10-08T05:42:21.898Z,3.40
2022-10-08T05:44:53.825Z,2.95
2022-10-08T05:47:25.794Z,3.08
2022-10-08T05:49:57.715Z,3.35
2022-10-08T05:52:29.613Z,3.88
2022-10-08T05:55:01.570Z,3.53
2022-10-08T05:57:33.586Z,3.53
2022-10-08T06:00:06.222Z,3.10
2022-10-08T06:02:38.525Z,3.33
2022-10-08T06:05:10.572Z,3.95
2022-10-08T06:07:42.511Z,3.53
2022-10-08T06:10:14.519Z,3.63
2022-10-08T06:12:49.372Z,3.40
2022-10-08T06:15:21.513Z,3.50
2022-10-08T06:17:53.457Z,3.30
2022-10-08T06:20:29.684Z,3.97
2022-10-08T06:23:03.657Z,3.55
2022-10-08T06:25:37.671Z,3.35
2022-10-08T06:28:09.644Z,4.50
2022-10-08T06:30:42.790Z,4.15
2022-10-08T06:33:16.966Z,4.03
2022-10-08T06:35:48.954Z,3.83
2022-10-08T06:38:21.854Z,4.13
2022-10-08T06:40:57.538Z,4.18
2022-10-08T06:43:29.477Z,3.30
2022-10-08T06:46:05.792Z,4.63
2022-10-08T06:48:37.957Z,4.25
2022-10-08T06:51:17.032Z,3.92
2022-10-08T06:53:55.096Z,4.30
2022-10-08T06:56:27.114Z,4.40
2022-10-08T06:58:59.060Z,4.45
2022-10-08T07:01:33.779Z,5.05
2022-10-08T07:04:07.114Z,3.95
2022-10-08T07:06:39.486Z,4.60
2022-10-08T07:09:13.436Z,4.80
2022-10-08T07:11:45.378Z,4.07
2022-10-08T07:14:17.274Z,5.50
2022-10-08T07:16:49.400Z,4.95
2022-10-08T07:19:21.396Z,5.43
2022-10-08T07:21:54.981Z,6.25
2022-10-08T07:24:29.792Z,6.70
2022-10-08T07:27:01.753Z,6.25
2022-10-08T07:29:33.769Z,4.85
2022-10-08T07:32:05.727Z,7.07
2022-10-08T07:34:37.617Z,5.47
2022-10-08T07:37:09.627Z,5.70
2022-10-08T07:39:41.646Z,5.40
2022-10-08T07:42:13.643Z,5.45
2022-10-08T07:44:45.527Z,4.72
2022-10-08T07:47:17.459Z,4.68
2022-10-08T07:49:49.403Z,4.72
2022-10-08T07:52:21.362Z,3.88
2022-10-08T07:54:53.292Z,4.05
2022-10-08T07:57:25.237Z,4.22
2022-10-08T07:59:57.155Z,4.45
2022-10-08T08:02:29.206Z,3.55
2022-10-08T08:05:01.146Z,3.80
2022-10-08T08:07:35.915Z,3.70
2022-10-08T08:10:08.482Z,4.00
2022-10-08T08:12:40.464Z,3.72
2022-10-08T08:15:12.416Z,3.85
2022-10-08T08:17:44.362Z,3.70
2022-10-08T08:20:16.306Z,3.53
2022-10-08T08:22:48.670Z,4.38
2022-10-08T08:25:21.211Z,3.63
2022-10-08T08:27:53.191Z,2.88
2022-10-08T08:30:25.178Z,3.10
2022-10-08T08:32:58.313Z,3.90
2022-10-08T08:35:30.207Z,3.88
2022-10-08T08:38:02.122Z,3.33
2022-10-08T08:40:34.139Z,3.38
2022-10-08T08:43:06.062Z,3.17
2022-10-08T08:45:47.466Z,2.33
2022-10-08T08:48:24.318Z,2.33
2022-10-08T08:50:58.794Z,2.65
2022-10-08T08:53:31.767Z,3.20
2022-10-08T08:56:08.163Z,2.42
2022-10-08T08:58:58.729Z,3.05
2022-10-08T09:01:40.882Z,2.45
2022-10-08T09:04:45.258Z,2.90
2022-10-08T09:07:23.341Z,2.38
2022-10-08T09:09:58.779Z,2.85
2022-10-08T09:12:39.693Z,2.45
2022-10-08T09:15:24.377Z,2.05
2022-10-08T09:17:56.280Z,2.33
2022-10-08T09:20:28.879Z,2.00
2022-10-08T09:23:00.964Z,2.47
2022-10-08T09:25:34.494Z,2.22
2022-10-08T09:28:06.527Z,2.20
2022-10-08T09:30:43.037Z,1.83
2022-10-08T09:33:16.462Z,2.05
2022-10-08T09:35:54.120Z,1.63
2022-10-08T09:38:28.516Z,1.80
2022-10-08T09:41:19.359Z,1.30
2022-10-08T09:44:22.405Z,2.03
2022-10-08T09:47:06.315Z,1.83
2022-10-08T09:49:41.492Z,1.65
2022-10-08T09:52:22.582Z,2.05
2022-10-08T09:55:20.654Z,1.55
2022-10-08T09:57:57.825Z,2.28
2022-10-08T10:00:36.532Z,2.10
2022-10-08T10:03:17.837Z,1.95
2022-10-08T10:05:56.151Z,1.50
2022-10-08T10:08:46.842Z,1.35
2022-10-08T10:11:36.388Z,1.55
2022-10-08T10:14:43.443Z,2.13
2022-10-08T10:17:39.294Z,1.45
2022-10-08T10:20:30.922Z,1.10
2022-10-08T10:23:29.367Z,0.95
2022-10-08T10:26:14.818Z,1.58
2022-10-08T10:28:55.802Z,1.27
2022-10-08T10:31:38.707Z,1.25
2022-10-08T10:34:30.110Z,2.63
2022-10-08T10:37:14.003Z,0.90
2022-10-08T10:40:04.551Z,1.20
2022-10-08T10:43:26.888Z,1.40
2022-10-08T10:46:23.297Z,0.85
2022-10-08T10:48:56.457Z,1.63
2022-10-08T10:51:45.653Z,1.23
2022-10-08T10:54:46.034Z,1.77
2022-10-08T11:00:03.926Z,1.17
2022-10-08T11:02:46.976Z,1.15
2022-10-08T11:05:25.889Z,1.40
2022-10-08T11:08:43.702Z,1.60
2022-10-08T11:11:37.329Z,1.60
2022-10-08T11:14:34.058Z,1.35
2022-10-08T11:17:32.034Z,1.20
2022-10-08T11:20:40.267Z,1.40
2022-10-08T11:24:13.396Z,1.35
2022-10-08T11:27:17.939Z,1.83
2022-10-08T11:29:58.149Z,0.88
2022-10-08T11:32:31.566Z,1.20
2022-10-08T11:35:12.601Z,1.30
2022-10-08T11:38:25.238Z,1.10
2022-10-08T11:41:31.899Z,1.17
2022-10-08T11:44:06.327Z,1.13
2022-10-08T11:46:38.323Z,1.55
2022-10-08T11:49:12.929Z,1.00
2022-10-08T11:51:52.415Z,2.28
2022-10-08T11:54:34.831Z,1.83
2022-10-08T11:57:19.496Z,1.60
2022-10-08T12:00:22.466Z,1.40
2022-10-08T12:02:55.674Z,1.25
2022-10-08T12:05:49.339Z,1.30
2022-10-08T12:08:59.910Z,1.45
2022-10-08T12:11:40.671Z,1.60
2022-10-08T12:14:12.637Z,1.10
2022-10-08T12:16:47.646Z,1.25
2022-10-08T12:19:35.394Z,1.55
2022-10-08T12:22:28.091Z,1.23
2022-10-08T12:25:03.892Z,1.15
2022-10-08T12:27:38.201Z,1.05
2022-10-08T12:30:13.947Z,1.02
2022-10-08T12:32:46.145Z,1.27
2022-10-08T12:35:33.491Z,1.40
2022-10-08T12:38:51.175Z,1.00
2022-10-08T12:41:28.810Z,1.27
2022-10-08T12:44:27.566Z,1.42
2022-10-08T12:47:17.495Z,0.98
2022-10-08T12:49:57.363Z,1.38
2022-10-08T12:52:34.797Z,1.10
2022-10-08T12:55:07.502Z,2.15
2022-10-08T12:57:41.437Z,1.35
2022-10-08T13:00:25.080Z,3.90
2022-10-08T13:03:14.316Z,1.42
2022-10-08T13:05:50.478Z,1.15
2022-10-08T13:08:39.439Z,1.30
2022-10-08T13:11:15.284Z,1.42
2022-10-08T13:13:51.769Z,1.70
2022-10-08T13:16:26.314Z,1.17
2022-10-08T13:18:58.965Z,1.33
2022-10-08T13:21:36.699Z,2.40
2022-10-08T13:24:14.440Z,1.95
2022-10-08T13:26:52.489Z,2.30
2022-10-08T13:29:24.351Z,1.67
2022-10-08T13:32:19.254Z,2.17
2022-10-08T13:34:55.388Z,1.10
2022-10-08T13:37:39.397Z,1.40
2022-10-08T13:40:11.193Z,1.20
2022-10-08T13:42:48.604Z,1.20
2022-10-08T13:45:30.043Z,1.13
2022-10-08T13:48:01.971Z,1.23
2022-10-08T13:50:34.214Z,1.60
2022-10-08T13:53:06.445Z,1.20
2022-10-08T13:55:41.973Z,1.90
2022-10-08T13:58:16.873Z,2.53
2022-10-08T14:00:49.140Z,1.13
2022-10-08T14:03:21.623Z,1.50
2022-10-08T14:05:53.509Z,1.63
2022-10-08T14:08:29.281Z,3.22
2022-10-08T14:11:01.472Z,1.40
2022-10-08T14:13:33.405Z,1.60
2022-10-08T14:16:05.418Z,2.10
2022-10-08T14:18:37.412Z,1.90
2022-10-08T14:21:13.128Z,1.60
2022-10-08T14:23:45.249Z,1.75
2022-10-08T14:26:17.502Z,2.08
2022-10-08T14:28:49.476Z,1.52
2022-10-08T14:31:21.419Z,1.98
2022-10-08T14:33:53.406Z,1.77
2022-10-08T14:36:35.850Z,1.23
2022-10-08T14:39:10.110Z,0.98
2022-10-08T14:41:44.123Z,1.50
2022-10-08T14:44:16.983Z,1.50
2022-10-08T14:46:51.995Z,1.20
2022-10-08T14:49:24.190Z,1.40
2022-10-08T14:51:56.155Z,1.60
2022-10-08T14:54:28.277Z,1.40
2022-10-08T14:57:00.259Z,1.38
2022-10-08T14:59:35.219Z,1.42
2022-10-08T15:02:12.141Z,1.35
2022-10-08T15:04:44.266Z,1.30
2022-10-08T15:07:16.185Z,1.42
2022-10-08T15:09:48.146Z,1.35
2022-10-08T15:12:20.072Z,1.88
2022-10-08T15:14:52.016Z,1.27
2022-10-08T15:17:23.922Z,1.65
2022-10-08T15:19:57.733Z,1.42
2022-10-08T15:22:29.658Z,1.20
2022-10-08T15:25:01.636Z,1.40
2022-10-08T15:27:33.571Z,1.33
2022-10-08T15:30:06.190Z,1.73
2022-10-08T15:32:39.234Z,1.58
2022-10-08T15:35:12.113Z,1.85
2022-10-08T15:37:44.348Z,1.38
2022-10-08T15:40:16.819Z,1.33
2022-10-08T15:42:51.779Z,1.40
2022-10-08T15:45:24.365Z,1.60
2022-10-08T15:47:56.273Z,1.30
2022-10-08T15:50:28.186Z,1.50
2022-10-08T15:53:00.109Z,1.60
2022-10-08T15:55:32.104Z,1.95
2022-10-08T15:58:04.041Z,1.90
2022-10-08T16:00:38.220Z,2.78
2022-10-08T16:03:10.643Z,1.70
2022-10-08T16:05:42.586Z,1.92
2022-10-08T16:08:14.472Z,1.63
2022-10-08T16:10:46.394Z,1.55
2022-10-08T16:13:18.421Z,1.85
2022-10-08T16:15:50.391Z,2.65
2022-10-08T16:18:22.402Z,2.30
2022-10-08T16:20:54.342Z,1.90
2022-10-08T16:23:26.236Z,2.42
2022-10-08T16:26:01.354Z,5.97
2022-10-08T16:28:37.326Z,2.70
2022-10-08T16:31:11.472Z,2.05
2022-10-08T16:33:44.495Z,1.83
2022-10-08T16:36:16.433Z,2.33
2022-10-08T16:38:48.373Z,2.30
2022-10-08T16:41:25.722Z,2.70
2022-10-08T16:44:04.975Z,2.95
2022-10-08T16:46:43.077Z,2.85
2022-10-08T16:49:26.063Z,4.05
2022-10-08T16:52:04.666Z,2.20
2022-10-08T16:54:36.856Z,2.80
2022-10-08T16:57:09.138Z,2.28
2022-10-08T16:59:41.072Z,2.60
2022-10-08T17:02:13.474Z,4.60
2022-10-08T17:04:45.559Z,2.85
2022-10-08T17:07:17.523Z,2.67
2022-10-08T17:09:49.486Z,2.55
2022-10-08T17:12:22.050Z,2.10
2022-10-08T17:14:54.047Z,1.98
2022-10-08T17:17:26.015Z,2.05
2022-10-08T17:19:57.962Z,2.30
2022-10-08T17:22:30.047Z,2.03
2022-10-08T17:25:01.986Z,2.17
2022-10-08T17:27:33.937Z,9.50
2022-10-08T17:30:06.438Z,8.38
2022-10-08T17:32:38.381Z,2.45
2022-10-08T17:35:10.343Z,1.92
2022-10-08T17:37:42.306Z,1.75
2022-10-08T17:40:14.262Z,3.72
2022-10-08T17:42:46.444Z,2.80
2022-10-08T17:45:18.539Z,6.63
2022-10-08T17:47:50.472Z,3.10
2022-10-08T17:50:22.431Z,2.40
2022-10-08T17:52:54.441Z,1.95
2022-10-08T17:55:26.393Z,3.42
2022-10-08T17:57:58.441Z,2.97
2022-10-08T18:00:30.378Z,2.55
2022-10-08T18:03:02.438Z,3.03
2022-10-08T18:05:34.448Z,3.85
2022-10-08T18:08:06.381Z,3.47
2022-10-08T18:10:38.637Z,2.03
2022-10-08T18:13:10.649Z,1.70
2022-10-08T18:15:42.800Z,2.30
2022-10-08T18:18:14.799Z,2.13
2022-10-08T18:20:58.721Z,1.90
2022-10-08T18:23:32.766Z,1.95
2022-10-08T18:26:10.111Z,2.45
2022-10-08T18:28:42.278Z,2.20
2022-10-08T18:31:15.713Z,2.72
2022-10-08T18:33:51.514Z,2.40
2022-10-08T18:36:29.914Z,1.75
2022-10-08T18:39:14.421Z,2.92
2022-10-08T18:41:49.288Z,2.70
2022-10-08T18:44:24.828Z,3.13
2022-10-08T18:47:00.599Z,2.65
2022-10-08T18:49:36.112Z,1.98
2022-10-08T18:52:08.226Z,2.95
2022-10-08T18:54:40.179Z,1.90
2022-10-08T18:57:12.077Z,2.63
2022-10-08T18:59:44.045Z,2.08
2022-10-08T19:02:16.077Z,2.28
2022-10-08T19:04:49.820Z,3.00
2022-10-08T19:07:21.735Z,3.13
2022-10-08T19:09:53.781Z,3.58
2022-10-08T19:12:25.842Z,3.20
2022-10-08T19:14:57.971Z,2.78
2022-10-08T19:17:29.899Z,2.80
2022-10-08T19:20:01.926Z,3.28
2022-10-08T19:22:33.860Z,2.97
2022-10-08T19:25:06.451Z,2.17
2022-10-08T19:27:38.414Z,2.53
2022-10-08T19:30:10.654Z,2.72
2022-10-08T19:32:42.953Z,2.58
2022-10-08T19:35:14.958Z,3.25
2022-10-08T19:37:47.340Z,2.75
2022-10-08T19:40:19.319Z,2.80
2022-10-08T19:42:51.600Z,2.55
2022-10-08T19:45:23.753Z,2.60
2022-10-08T19:47:55.710Z,2.92
2022-10-08T19:50:27.634Z,2.85
2022-10-08T19:52:59.795Z,2.70
2022-10-08T19:55:31.792Z,2.85
2022-10-08T19:58:04.713Z,2.45
2022-10-08T20:00:36.729Z,2.65
2022-10-08T20:03:08.713Z,3.13
2022-10-08T20:05:40.709Z,2.30
2022-10-08T20:08:12.605Z,2.90
2022-10-08T20:10:44.782Z,3.50
2022-10-08T20:13:16.726Z,3.10
2022-10-08T20:15:51.337Z,2.40
2022-10-08T20:18:23.740Z,2.92
2022-10-08T20:21:06.033Z,2.17
2022-10-08T20:23:39.988Z,2.50
2022-10-08T20:26:21.346Z,2.50
2022-10-08T20:29:17.010Z,3.08
2022-10-08T20:31:55.178Z,3.38
2022-10-08T20:34:31.206Z,2.55
2022-10-08T20:37:03.445Z,2.63
2022-10-08T20:39:35.404Z,2.63
2022-10-08T20:42:07.451Z,2.63
2022-10-08T20:44:39.383Z,2.63
2022-10-08T20:47:11.557Z,2.22
2022-10-08T20:49:43.633Z,2.63
2022-10-08T20:52:15.579Z,4.50
2022-10-08T20:54:47.529Z,3.42
2022-10-08T20:57:19.473Z,2.65
2022-10-08T20:59:51.486Z,3.20
2022-10-08T21:02:23.557Z,3.05
2022-10-08T21:04:55.507Z,3.05
2022-10-08T21:07:27.454Z,4.10
2022-10-08T21:09:59.422Z,3.10
2022-10-08T21:12:32.428Z,2.95
2022-10-08T21:15:05.038Z,3.30
2022-10-08T21:17:37.038Z,2.88
2022-10-08T21:20:09.611Z,3.58
2022-10-08T21:22:41.600Z,3.03
2022-10-08T21:25:13.643Z,2.83
2022-10-08T21:27:46.229Z,2.78
2022-10-08T21:30:18.302Z,2.58
2022-10-08T21:32:51.333Z,2.38
2022-10-08T21:35:23.352Z,2.83
2022-10-08T21:37:55.371Z,3.40
2022-10-08T21:40:27.624Z,3.38
2022-10-08T21:42:59.581Z,3.33
2022-10-08T21:45:31.530Z,2.95
2022-10-08T21:48:03.539Z,3.08
2022-10-08T21:50:36.357Z,2.75
2022-10-08T21:53:08.458Z,2.25
2022-10-08T21:55:40.418Z,2.65
2022-10-08T21:58:12.370Z,3.33
2022-10-08T22:00:44.391Z,3.60
2022-10-08T22:03:18.825Z,3.50
2022-10-08T22:05:55.184Z,2.90
2022-10-08T22:08:29.790Z,2.47
2022-10-08T22:11:05.879Z,3.25
2022-10-08T22:13:37.866Z,3.00
2022-10-08T22:16:13.582Z,3.38
2022-10-08T22:18:45.794Z,3.28
2022-10-08T22:21:21.084Z,3.25
2022-10-08T22:23:53.352Z,3.20
2022-10-08T22:26:51.800Z,4.35
2022-10-08T22:29:23.741Z,2.67
2022-10-08T22:31:55.725Z,2.42
2022-10-08T22:34:29.355Z,2.75
2022-10-08T22:37:01.248Z,2.33
2022-10-08T22:39:33.148Z,2.38
2022-10-08T22:42:05.367Z,3.10
2022-10-08T22:44:37.278Z,3.08
2022-10-08T22:47:09.200Z,3.38
2022-10-08T22:49:41.266Z,3.75
2022-10-08T22:52:13.145Z,2.53
2022-10-08T22:54:45.327Z,3.00
2022-10-08T22:57:17.278Z,3.38
2022-10-08T22:59:49.252Z,3.10
2022-10-08T23:02:21.396Z,3.40
2022-10-08T23:04:53.383Z,2.38
2022-10-08T23:07:25.277Z,3.38
2022-10-08T23:09:57.261Z,3.25
2022-10-08T23:12:29.146Z,2.85
2022-10-08T23:15:01.030Z,3.33
2022-10-08T23:17:33.027Z,3.08
2022-10-08T23:20:05.684Z,3.30
2022-10-08T23:22:37.586Z,3.63
2022-10-08T23:25:09.898Z,3.10
2022-10-08T23:27:41.789Z,3.33
2022-10-08T23:30:41.080Z,5.43
2022-10-08T23:33:05.631Z,2.55
2022-10-08T23:35:37.602Z,3.03
2022-10-08T23:38:09.869Z,3.33
2022-10-08T23:40:41.923Z,2.83
2022-10-08T23:43:13.969Z,3.00
2022-10-08T23:45:45.999Z,4.10
2022-10-08T23:48:17.948Z,3.20
2022-10-08T23:50:51.934Z,3.00
2022-10-08T23:53:24.179Z,2.83
2022-10-08T23:55:56.330Z,3.40
2022-10-08T23:58:28.477Z,3.67
